Margaret Moran — WQZ6557 — position and weather

sailwx.info

Track history (hours):
 
Tides and Currents Weather Stations Pressure Air Temp Water Temp Dewpoint Dewpoint Depression Visibility Wind Speed Wind Dir Waves Ship Positions

Margaret Moran

Owner: MORAN TOWING CORPORATION, New Canaan, CT. More information available from US FCC via Universal Licensing System and Coast Guard Vessel Documentation Center.

Last reported at 2018-Jun-24 22:23 UTC. Time now 2018-Jun-24 22:34 UTC.
Position N 40°38' W 074°08'.

Length 31 m; draft 4.6 m.

Type: Tug. MMSI: 366939820.

Date/timePositionNaut miles runAvg speedWind from/ knotsBaromVisibWave heightAir tempDewpointWater temp
2018-Jun-24 22:23N 40°38' W 074°08'0 0.0
2018-Jun-24 21:53N 40°38' W 074°08'0 0.0
2018-Jun-24 21:23N 40°38' W 074°08'0 0.0
2018-Jun-24 20:59N 40°38' W 074°08'0 0.0
2018-Jun-24 20:29N 40°38' W 074°08'0 0.0
2018-Jun-24 19:59N 40°38' W 074°08'0 0.0
2018-Jun-24 18:35N 40°38' W 074°08'0 0.0
2018-Jun-24 17:29N 40°38' W 074°08'0 0.0
2018-Jun-24 16:47N 40°38' W 074°08'0 0.0
2018-Jun-24 16:23N 40°38' W 074°08'0 0.0
2018-Jun-24 15:59N 40°38' W 074°08'0 0.0
2018-Jun-24 15:29N 40°38' W 074°08'0 0.0
2018-Jun-24 14:47N 40°38' W 074°08'0 0.0
2018-Jun-24 14:29N 40°38' W 074°08'0 0.0
2018-Jun-24 13:59N 40°38' W 074°08'0 0.0
2018-Jun-24 13:17N 40°38' W 074°08'0 0.0
2018-Jun-24 11:56N 40°38' W 074°08'0 0.0
2018-Jun-24 11:13N 40°38' W 074°08'1 5.9
2018-Jun-24 11:00N 40°39' W 074°09'1 0.8
2018-Jun-24 10:20N 40°39' W 074°09'1 3.4
2018-Jun-24 09:59N 40°39' W 074°08'0 0.0
2018-Jun-24 05:55N 40°38' W 074°08'0 0.4
2018-Jun-24 05:30N 40°39' W 074°08'2 3.6
2018-Jun-24 04:59N 40°40' W 074°08'1 1.8
2018-Jun-24 04:31N 40°41' W 074°09'0 0.1
2018-Jun-24 02:33N 40°41' W 074°09'0 0.1
2018-Jun-24 02:23N 40°41' W 074°09'0 0.0
2018-Jun-24 01:58N 40°41' W 074°09'0 0.3
2018-Jun-24 01:30N 40°41' W 074°09'0 0.5
2018-Jun-24 00:59N 40°41' W 074°08'0 0.8
2018-Jun-24 00:25N 40°41' W 074°08'2 5.3
2018-Jun-24 00:00N 40°39' W 074°08'4 7.3
2018-Jun-23 23:31N 40°39' W 074°04'2 4.1
2018-Jun-23 23:00N 40°41' W 074°04'1 1.9
2018-Jun-23 22:30N 40°40' W 074°04'3 6.3
2018-Jun-23 21:58N 40°38' W 074°08'0 0.0
2018-Jun-23 21:19N 40°38' W 074°08'0 0.0
2018-Jun-23 20:55N 40°38' W 074°08'1 2.1
2018-Jun-23 20:31N 40°38' W 074°09'3 4.5
2018-Jun-23 19:57N 40°39' W 074°06'3 6.8
2018-Jun-23 19:30N 40°37' W 074°03'2 2.8
2018-Jun-23 18:58N 40°38' W 074°04'0 0.0
2018-Jun-23 18:28N 40°38' W 074°04'2 4.3
2018-Jun-23 18:00N 40°39' W 074°06'3 5.0
2018-Jun-23 17:26N 40°41' W 074°08'0 0.2
2018-Jun-23 17:00N 40°41' W 074°08'0 0.3
2018-Jun-23 16:30N 40°41' W 074°08'0 0.0
2018-Jun-23 15:41N 40°41' W 074°08'1 2.1
2018-Jun-23 15:14N 40°41' W 074°09'0 0.1
2018-Jun-23 15:00N 40°41' W 074°09'3 4.1
2018-Jun-23 14:20N 40°38' W 074°09'1 1.4
2018-Jun-23 13:51N 40°38' W 074°08'0 0.0
2018-Jun-23 13:30N 40°38' W 074°08'0 0.0
2018-Jun-23 08:57N 40°38' W 074°08'0 0.0
2018-Jun-23 08:21N 40°38' W 074°08'0 0.0
2018-Jun-23 08:00N 40°38' W 074°08'0 0.0
2018-Jun-23 05:38N 40°38' W 074°08'1 6.6
2018-Jun-23 05:29N 40°39' W 074°07'2 4.5
2018-Jun-23 05:00N 40°38' W 074°04'0 0.5
2018-Jun-23 04:30N 40°38' W 074°04'1 2.0
2018-Jun-23 04:00N 40°39' W 074°05'5 7.1
2018-Jun-23 03:21N 40°39' W 074°11'0 0.2
2018-Jun-23 00:31N 40°38' W 074°12'3 4.5
2018-Jun-22 23:50N 40°38' W 074°08'0 0.0
2018-Jun-22 23:26N 40°38' W 074°08'0 0.0
2018-Jun-22 22:57N 40°38' W 074°08'1 2.6
2018-Jun-22 22:30N 40°39' W 074°06'2 4.0
2018-Jun-22 22:00N 40°40' W 074°09'0 0.5
2018-Jun-22 21:23N 40°40' W 074°09'0 0.5
2018-Jun-22 21:00N 40°40' W 074°09'1 2.6
2018-Jun-22 20:28N 40°38' W 074°08'0 0.0
2018-Jun-22 19:58N 40°38' W 074°08'0 0.0
2018-Jun-22 19:28N 40°38' W 074°08'0 0.0
2018-Jun-22 18:58N 40°38' W 074°08'0 0.0
2018-Jun-22 18:28N 40°38' W 074°08'0 0.0
2018-Jun-22 17:58N 40°38' W 074°08'0 0.0
2018-Jun-22 17:28N 40°38' W 074°08'0 0.0
2018-Jun-22 16:55N 40°38' W 074°08'0 0.0
2018-Jun-22 16:28N 40°38' W 074°08'0 0.0
2018-Jun-22 15:58N 40°38' W 074°08'0 0.0
2018-Jun-22 15:30N 40°38' W 074°08'2 4.3
2018-Jun-22 15:00N 40°39' W 074°05'0 0.6
2018-Jun-22 14:30N 40°39' W 074°05'1 3.0
2018-Jun-22 14:00N 40°38' W 074°04'1 1.0
2018-Jun-22 13:30N 40°37' W 074°04'2 4.4
2018-Jun-22 13:00N 40°39' W 074°06'2 2.8
2018-Jun-22 12:28N 40°38' W 074°08'0 0.0
2018-Jun-22 11:55N 40°38' W 074°08'0 0.0
2018-Jun-22 11:28N 40°38' W 074°08'0 0.0
2018-Jun-22 11:01N 40°38' W 074°08'2 3.6
2018-Jun-22 10:29N 40°40' W 074°08'1 1.5
2018-Jun-22 09:57N 40°41' W 074°09'2 5.1
2018-Jun-22 09:30N 40°39' W 074°09'2 3.5
2018-Jun-22 09:00N 40°39' W 074°07'0 0.0
2018-Jun-22 08:31N 40°39' W 074°07'1 2.4
2018-Jun-22 08:01N 40°39' W 074°05'2 4.0
2018-Jun-22 07:30N 40°38' W 074°03'3 6.0
2018-Jun-22 07:00N 40°39' W 074°07'1 0.3
2018-Jun-22 04:53N 40°39' W 074°08'2 6.5
2018-Jun-22 04:31N 40°39' W 074°05'1 1.7
2018-Jun-22 04:00N 40°40' W 074°04'1 2.2
2018-Jun-22 03:31N 40°39' W 074°04'4 7.3
2018-Jun-22 03:00N 40°39' W 074°09'3 5.0
2018-Jun-22 02:29N 40°41' W 074°08'0 0.3
2018-Jun-22 01:36N 40°41' W 074°08'110.4
2018-Jun-22 01:30N 40°40' W 074°08'2 3.4
2018-Jun-22 00:58N 40°38' W 074°08'0 0.0
2018-Jun-21 23:49N 40°38' W 074°08'0 0.0
2018-Jun-21 23:28N 40°38' W 074°08'0 0.0
2018-Jun-21 22:55N 40°38' W 074°08'0 0.0
2018-Jun-21 22:28N 40°38' W 074°08'0 0.0
2018-Jun-21 21:58N 40°38' W 074°08'0 0.0
2018-Jun-21 21:28N 40°38' W 074°08'0 0.0
2018-Jun-21 20:55N 40°38' W 074°08'0 0.0
2018-Jun-21 18:10N 40°38' W 074°08'0 0.0
2018-Jun-21 17:55N 40°38' W 074°08'0 0.0
2018-Jun-21 17:28N 40°38' W 074°08'0 0.0
2018-Jun-21 16:58N 40°38' W 074°08'0 0.0
2018-Jun-21 16:29N 40°38' W 074°08'0 0.0
2018-Jun-21 15:59N 40°38' W 074°08'0 0.2
2018-Jun-21 15:31N 40°39' W 074°08'4 8.0
2018-Jun-21 15:00N 40°40' W 074°03'4 3.4
2018-Jun-21 13:48N 40°38' W 074°08'1 3.7
2018-Jun-21 13:30N 40°39' W 074°09'1 2.7
2018-Jun-21 13:00N 40°40' W 074°08'1 1.6
2018-Jun-21 12:30N 40°41' W 074°09'0 0.1
2018-Jun-21 12:01N 40°41' W 074°09'2 3.7
2018-Jun-21 11:30N 40°39' W 074°09'1 0.9
2018-Jun-21 10:19N 40°38' W 074°08'2 4.8
2018-Jun-21 10:00N 40°39' W 074°06'2 3.3
2018-Jun-21 09:31N 40°40' W 074°05'0 0.1
2018-Jun-21 09:00N 40°40' W 074°05'2 3.4
2018-Jun-21 08:30N 40°39' W 074°03'1 2.1
2018-Jun-21 08:01N 40°39' W 074°05'2 4.1
2018-Jun-21 07:26N 40°38' W 074°08'0 0.0
2018-Jun-21 06:38N 40°38' W 074°08'0 0.0
2018-Jun-21 06:20N 40°38' W 074°08'0 0.0
2018-Jun-21 05:26N 40°38' W 074°08'3 1.0
2018-Jun-21 02:13N 40°38' W 074°12'2 9.3
2018-Jun-21 02:00N 40°39' W 074°09'2 1.5
2018-Jun-21 00:46N 40°40' W 074°08'2 6.8
2018-Jun-21 00:28N 40°39' W 074°09'3 7.1
2018-Jun-21 00:01N 40°39' W 074°05'2 3.2
2018-Jun-20 23:30N 40°38' W 074°03'4 4.9
2018-Jun-20 22:46N 40°39' W 074°08'1 3.5
2018-Jun-20 22:31N 40°39' W 074°09'2 0.6
2018-Jun-20 18:44N 40°38' W 074°12'1 5.0
2018-Jun-20 18:28N 40°39' W 074°10'3 7.0
2018-Jun-20 18:00N 40°39' W 074°06'2 3.5
2018-Jun-20 17:31N 40°39' W 074°04'1 2.6
2018-Jun-20 17:00N 40°39' W 074°06'2 3.4
2018-Jun-20 16:30N 40°38' W 074°08'1 2.2
2018-Jun-20 16:00N 40°39' W 074°09'2 0.5
2018-Jun-20 11:49N 40°38' W 074°12'310.4
2018-Jun-20 11:30N 40°40' W 074°08'2 3.4
2018-Jun-20 11:00N 40°42' W 074°08'1 2.1
2018-Jun-20 10:29N 40°40' W 074°08'2 4.0
2018-Jun-20 10:00N 40°39' W 074°07'3 5.3
2018-Jun-20 09:30N 40°39' W 074°04'2 4.1
2018-Jun-20 09:00N 40°39' W 074°06'1 1.3
2018-Jun-20 08:10N 40°38' W 074°08'0 0.0
2018-Jun-20 07:52N 40°38' W 074°08'0 0.0
2018-Jun-20 07:18N 40°38' W 074°08'1 2.0
2018-Jun-20 07:00N 40°39' W 074°09'3 2.5
2018-Jun-20 05:52N 40°41' W 074°08'3 0.5
2018-Jun-20 00:23N 40°38' W 074°08'0 0.6
2018-Jun-19 23:58N 40°39' W 074°08'2 4.3
2018-Jun-19 23:30N 40°41' W 074°08'2 2.7
2018-Jun-19 22:55N 40°42' W 074°09'2 5.3
2018-Jun-19 22:30N 40°40' W 074°08'1 2.5
2018-Jun-19 22:00N 40°39' W 074°08'3 4.7
2018-Jun-19 21:27N 40°41' W 074°09'0 0.1
2018-Jun-19 21:00N 40°41' W 074°09'3 3.7
2018-Jun-19 20:19N 40°38' W 074°09'2 5.8
2018-Jun-19 19:55N 40°39' W 074°06'2 5.7
2018-Jun-19 19:30N 40°38' W 074°03'1 2.1
2018-Jun-19 19:00N 40°37' W 074°03'4 8.3
2018-Jun-19 18:29N 40°39' W 074°07'3 5.1
2018-Jun-19 17:52N 40°42' W 074°08'0 0.3
2018-Jun-19 17:30N 40°42' W 074°08'3 6.3
2018-Jun-19 17:00N 40°39' W 074°09'2 4.7
2018-Jun-19 16:30N 40°39' W 074°06'1 2.9
2018-Jun-19 15:59N 40°38' W 074°08'0 0.0
2018-Jun-19 15:28N 40°38' W 074°08'0 0.0
2018-Jun-19 14:52N 40°38' W 074°08'0 0.0
2018-Jun-19 14:28N 40°38' W 074°08'0 0.0
2018-Jun-19 13:58N 40°38' W 074°08'0 0.0
2018-Jun-19 13:28N 40°38' W 074°08'0 0.0
2018-Jun-19 12:58N 40°38' W 074°08'0 0.0
2018-Jun-19 12:22N 40°38' W 074°08'0 0.0
2018-Jun-19 12:00N 40°38' W 074°08'0 0.0
2018-Jun-19 11:29N 40°38' W 074°08'0 0.0
2018-Jun-19 10:49N 40°38' W 074°08'1 3.3
2018-Jun-19 10:28N 40°39' W 074°09'2 4.5
2018-Jun-19 10:00N 40°42' W 074°08'0 0.6
2018-Jun-19 09:27N 40°41' W 074°08'3 5.7
2018-Jun-19 08:59N 40°39' W 074°09'1 2.0
2018-Jun-19 08:30N 40°38' W 074°08'0 0.0
2018-Jun-19 07:57N 40°38' W 074°08'1 3.0
2018-Jun-19 07:30N 40°40' W 074°09'0 0.4
2018-Jun-19 07:00N 40°40' W 074°09'1 2.6
2018-Jun-19 06:31N 40°39' W 074°09'1 1.5
2018-Jun-19 05:58N 40°38' W 074°08'0 0.0
2018-Jun-19 05:28N 40°38' W 074°08'0 0.0
2018-Jun-19 04:55N 40°38' W 074°08'0 0.0
2018-Jun-19 04:25N 40°38' W 074°08'0 0.0
2018-Jun-19 03:58N 40°38' W 074°08'0 0.0
2018-Jun-19 00:46N 40°38' W 074°08'0 0.0
2018-Jun-19 00:28N 40°38' W 074°08'4 5.4
2018-Jun-18 23:48N 40°42' W 074°09'0 0.4
2018-Jun-18 23:24N 40°42' W 074°09'1 1.9
2018-Jun-18 22:47N 40°41' W 074°08'0 0.2
2018-Jun-18 21:14N 40°41' W 074°08'1 2.8
2018-Jun-18 21:01N 40°41' W 074°09'0 0.1
2018-Jun-18 20:30N 40°41' W 074°09'1 1.0
2018-Jun-18 19:59N 40°40' W 074°08'2 3.6
2018-Jun-18 19:28N 40°39' W 074°09'3 7.5
2018-Jun-18 19:00N 40°39' W 074°04'2 3.8
2018-Jun-18 18:29N 40°41' W 074°04'0 0.1
2018-Jun-18 18:00N 40°41' W 074°04'4 1.1
2018-Jun-18 14:33N 40°38' W 074°08'0 0.1
2018-Jun-18 14:30N 40°38' W 074°08'0 0.8
2018-Jun-18 14:00N 40°39' W 074°07'3 6.3
2018-Jun-18 13:31N 40°38' W 074°03'3 6.7
2018-Jun-18 13:00N 40°39' W 074°08'0 0.1
2018-Jun-18 12:14N 40°38' W 074°08'0 0.0
2018-Jun-18 11:59N 40°38' W 074°08'0 0.0
2018-Jun-18 11:17N 40°38' W 074°08'0 0.0
2018-Jun-18 10:59N 40°38' W 074°08'0 0.0
2018-Jun-18 10:14N 40°38' W 074°08'0 0.0
2018-Jun-18 09:56N 40°38' W 074°08'0 0.0
2018-Jun-18 09:17N 40°38' W 074°08'0 0.0
2018-Jun-18 08:59N 40°38' W 074°08'1 2.8
2018-Jun-18 08:30N 40°39' W 074°10'4 8.1
2018-Jun-18 08:00N 40°35' W 074°12'2 4.9
2018-Jun-18 07:30N 40°33' W 074°14'5 2.8
2018-Jun-18 05:45N 40°38' W 074°12'2 7.1
2018-Jun-18 05:30N 40°39' W 074°10'2 3.5
2018-Jun-18 04:59N 40°38' W 074°08'0 0.6
2018-Jun-18 04:30N 40°39' W 074°08'2 5.1
2018-Jun-18 04:01N 40°39' W 074°05'1 1.8
2018-Jun-18 03:31N 40°38' W 074°04'3 5.6
2018-Jun-18 03:00N 40°38' W 074°08'0 0.0
2018-Jun-18 02:28N 40°38' W 074°08'0 0.0
2018-Jun-18 01:55N 40°38' W 074°08'0 0.0
2018-Jun-18 01:22N 40°38' W 074°08'0 0.0
2018-Jun-18 01:00N 40°38' W 074°08'0 0.0
2018-Jun-18 00:27N 40°38' W 074°08'0 0.0
2018-Jun-18 00:00N 40°38' W 074°08'0 0.0
2018-Jun-17 23:30N 40°38' W 074°08'0 0.0
2018-Jun-17 22:57N 40°38' W 074°08'0 0.0
2018-Jun-17 22:30N 40°38' W 074°08'2 3.0
2018-Jun-17 21:58N 40°39' W 074°10'1 0.5
2018-Jun-17 19:09N 40°39' W 074°08'2 6.3
2018-Jun-17 18:54N 40°39' W 074°06'2 2.8
2018-Jun-17 18:18N 40°38' W 074°04'1 2.6
2018-Jun-17 17:59N 40°39' W 074°04'3 0.4
2018-Jun-17 10:46N 40°38' W 074°08'0 0.0
2018-Jun-17 10:23N 40°38' W 074°08'1 3.8
2018-Jun-17 10:00N 40°40' W 074°09'1 2.3
2018-Jun-17 09:29N 40°39' W 074°09'1 0.2
2018-Jun-17 04:10N 40°38' W 074°08'2 9.9
2018-Jun-17 04:00N 40°39' W 074°10'2 0.5
2018-Jun-17 01:04N 40°38' W 074°12'0 6.5
2018-Jun-17 01:00N 40°38' W 074°12'3 5.6
2018-Jun-17 00:30N 40°39' W 074°08'3 6.6
2018-Jun-16 23:59N 40°38' W 074°03'1 1.3
2018-Jun-16 23:30N 40°38' W 074°04'1 2.0
2018-Jun-16 23:00N 40°39' W 074°05'3 5.1
2018-Jun-16 22:29N 40°39' W 074°09'2 4.9
2018-Jun-16 22:00N 40°42' W 074°08'0 0.1
2018-Jun-16 21:29N 40°42' W 074°08'3 0.5
2018-Jun-16 14:34N 40°38' W 074°08'0 4.0
2018-Jun-16 14:31N 40°39' W 074°08'3 5.6
2018-Jun-16 14:00N 40°39' W 074°04'2 4.4
2018-Jun-16 13:30N 40°37' W 074°03'2 3.9
2018-Jun-16 12:59N 40°39' W 074°02'0 0.0
2018-Jun-16 12:29N 40°39' W 074°02'0 0.0
2018-Jun-16 11:59N 40°39' W 074°02'0 0.0
2018-Jun-16 11:29N 40°39' W 074°02'0 0.5
2018-Jun-16 11:00N 40°39' W 074°02'2 4.7
2018-Jun-16 10:30N 40°40' W 074°05'0 0.7
2018-Jun-16 10:00N 40°40' W 074°05'0 0.0
2018-Jun-16 09:30N 40°40' W 074°05'0 0.0
2018-Jun-16 08:57N 40°40' W 074°05'0 0.6
2018-Jun-16 08:30N 40°40' W 074°05'4 7.0
2018-Jun-16 08:00N 40°39' W 074°09'1 2.7
2018-Jun-16 07:30N 40°40' W 074°09'0 0.2
2018-Jun-16 07:00N 40°40' W 074°09'0 0.0
2018-Jun-16 06:30N 40°40' W 074°09'0 0.0
2018-Jun-16 06:00N 40°40' W 074°09'0 0.0
2018-Jun-16 05:25N 40°40' W 074°09'0 0.0
2018-Jun-16 05:00N 40°40' W 074°09'2 1.0
2018-Jun-16 03:24N 40°38' W 074°08'0 0.0
2018-Jun-16 01:42N 40°38' W 074°08'0 0.0
2018-Jun-15 21:44N 40°38' W 074°08'1 3.4
2018-Jun-15 21:31N 40°39' W 074°09'3 5.1
2018-Jun-15 20:55N 40°42' W 074°08'1 1.6
2018-Jun-15 20:29N 40°41' W 074°08'3 5.4
2018-Jun-15 20:00N 40°38' W 074°09'1 0.7
2018-Jun-15 19:04N 40°38' W 074°08'0 0.2
2018-Jun-15 18:55N 40°39' W 074°08'0 0.1
2018-Jun-15 18:28N 40°38' W 074°08'0 0.0
2018-Jun-15 17:49N 40°38' W 074°08'0 0.0
2018-Jun-15 17:28N 40°38' W 074°08'0 0.0
2018-Jun-15 17:00N 40°38' W 074°08'1 2.6
2018-Jun-15 16:28N 40°40' W 074°09'1 1.8
2018-Jun-15 15:58N 40°39' W 074°09'3 6.0
2018-Jun-15 15:30N 40°39' W 074°05'1 2.0
2018-Jun-15 15:00N 40°38' W 074°04'0 0.0
2018-Jun-15 14:30N 40°38' W 074°04'1 2.1
2018-Jun-15 14:00N 40°39' W 074°05'0 0.9
2018-Jun-15 13:30N 40°39' W 074°05'1 1.8
2018-Jun-15 13:00N 40°39' W 074°06'0 0.0
2018-Jun-15 12:30N 40°39' W 074°06'2 1.2
2018-Jun-15 11:12N 40°38' W 074°08'1 7.3
2018-Jun-15 11:00N 40°39' W 074°06'2 3.4
2018-Jun-15 10:30N 40°40' W 074°05'0 0.1
2018-Jun-15 09:59N 40°40' W 074°05'2 4.8
2018-Jun-15 09:31N 40°38' W 074°03'1 1.3
2018-Jun-15 09:01N 40°37' W 074°03'4 7.2
2018-Jun-15 08:30N 40°38' W 074°08'0 0.2
2018-Jun-15 08:00N 40°39' W 074°08'2 4.0
2018-Jun-15 07:30N 40°41' W 074°08'1 2.7
2018-Jun-15 07:00N 40°42' W 074°09'0 0.3
2018-Jun-15 06:05N 40°42' W 074°08'1 9.8
2018-Jun-15 06:00N 40°41' W 074°08'2 4.2
2018-Jun-15 05:25N 40°38' W 074°08'0 0.0
2018-Jun-15 04:58N 40°38' W 074°08'0 0.0
2018-Jun-15 04:28N 40°38' W 074°08'0 0.0
2018-Jun-15 03:55N 40°38' W 074°08'0 0.0
2018-Jun-15 03:19N 40°38' W 074°08'0 0.0
2018-Jun-15 02:58N 40°38' W 074°08'0 0.0
2018-Jun-15 02:28N 40°38' W 074°08'0 0.0
2018-Jun-15 01:58N 40°38' W 074°08'0 0.0
2018-Jun-15 01:28N 40°38' W 074°08'0 0.0
2018-Jun-15 00:55N 40°38' W 074°08'0 0.0
2018-Jun-15 00:28N 40°38' W 074°08'0 0.0
2018-Jun-14 23:55N 40°38' W 074°08'0 0.0
2018-Jun-14 23:25N 40°38' W 074°08'1 2.4
2018-Jun-14 23:00N 40°39' W 074°09'  
Track history (hours):
 
Tides and Currents Weather Stations Pressure Air Temp Water Temp Dewpoint Dewpoint Depression Visibility Wind Speed Wind Dir Waves Ship Positions

Margaret Moran

Owner: MORAN TOWING CORPORATION, New Canaan, CT. More information available from US FCC via Universal Licensing System and Coast Guard Vessel Documentation Center.

Last reported at 2018-Jun-24 22:23 UTC. Time now 2018-Jun-24 22:34 UTC.
Position N 40°38' W 074°08'.

Length 31 m; draft 4.6 m.

Type: Tug. MMSI: 366939820.

Date/timePositionNaut miles runAvg speedWind from/ knotsBaromVisibWave heightAir tempDewpointWater temp
2018-Jun-24 22:23N 40°38' W 074°08'0 0.0
2018-Jun-24 21:53N 40°38' W 074°08'0 0.0
2018-Jun-24 21:23N 40°38' W 074°08'0 0.0
2018-Jun-24 20:59N 40°38' W 074°08'0 0.0
2018-Jun-24 20:29N 40°38' W 074°08'0 0.0
2018-Jun-24 19:59N 40°38' W 074°08'0 0.0
2018-Jun-24 18:35N 40°38' W 074°08'0 0.0
2018-Jun-24 17:29N 40°38' W 074°08'0 0.0
2018-Jun-24 16:47N 40°38' W 074°08'0 0.0
2018-Jun-24 16:23N 40°38' W 074°08'0 0.0
2018-Jun-24 15:59N 40°38' W 074°08'0 0.0
2018-Jun-24 15:29N 40°38' W 074°08'0 0.0
2018-Jun-24 14:47N 40°38' W 074°08'0 0.0
2018-Jun-24 14:29N 40°38' W 074°08'0 0.0
2018-Jun-24 13:59N 40°38' W 074°08'0 0.0
2018-Jun-24 13:17N 40°38' W 074°08'0 0.0
2018-Jun-24 11:56N 40°38' W 074°08'0 0.0
2018-Jun-24 11:13N 40°38' W 074°08'1 5.9
2018-Jun-24 11:00N 40°39' W 074°09'1 0.8
2018-Jun-24 10:20N 40°39' W 074°09'1 3.4
2018-Jun-24 09:59N 40°39' W 074°08'0 0.0
2018-Jun-24 05:55N 40°38' W 074°08'0 0.4
2018-Jun-24 05:30N 40°39' W 074°08'2 3.6
2018-Jun-24 04:59N 40°40' W 074°08'1 1.8
2018-Jun-24 04:31N 40°41' W 074°09'0 0.1
2018-Jun-24 02:33N 40°41' W 074°09'0 0.1
2018-Jun-24 02:23N 40°41' W 074°09'0 0.0
2018-Jun-24 01:58N 40°41' W 074°09'0 0.3
2018-Jun-24 01:30N 40°41' W 074°09'0 0.5
2018-Jun-24 00:59N 40°41' W 074°08'0 0.8
2018-Jun-24 00:25N 40°41' W 074°08'2 5.3
2018-Jun-24 00:00N 40°39' W 074°08'4 7.3
2018-Jun-23 23:31N 40°39' W 074°04'2 4.1
2018-Jun-23 23:00N 40°41' W 074°04'1 1.9
2018-Jun-23 22:30N 40°40' W 074°04'3 6.3
2018-Jun-23 21:58N 40°38' W 074°08'0 0.0
2018-Jun-23 21:19N 40°38' W 074°08'0 0.0
2018-Jun-23 20:55N 40°38' W 074°08'1 2.1
2018-Jun-23 20:31N 40°38' W 074°09'3 4.5
2018-Jun-23 19:57N 40°39' W 074°06'3 6.8
2018-Jun-23 19:30N 40°37' W 074°03'2 2.8
2018-Jun-23 18:58N 40°38' W 074°04'0 0.0
2018-Jun-23 18:28N 40°38' W 074°04'2 4.3
2018-Jun-23 18:00N 40°39' W 074°06'3 5.0
2018-Jun-23 17:26N 40°41' W 074°08'0 0.2
2018-Jun-23 17:00N 40°41' W 074°08'0 0.3
2018-Jun-23 16:30N 40°41' W 074°08'0 0.0
2018-Jun-23 15:41N 40°41' W 074°08'1 2.1
2018-Jun-23 15:14N 40°41' W 074°09'0 0.1
2018-Jun-23 15:00N 40°41' W 074°09'3 4.1
2018-Jun-23 14:20N 40°38' W 074°09'1 1.4
2018-Jun-23 13:51N 40°38' W 074°08'0 0.0
2018-Jun-23 13:30N 40°38' W 074°08'0 0.0
2018-Jun-23 08:57N 40°38' W 074°08'0 0.0
2018-Jun-23 08:21N 40°38' W 074°08'0 0.0
2018-Jun-23 08:00N 40°38' W 074°08'0 0.0
2018-Jun-23 05:38N 40°38' W 074°08'1 6.6
2018-Jun-23 05:29N 40°39' W 074°07'2 4.5
2018-Jun-23 05:00N 40°38' W 074°04'0 0.5
2018-Jun-23 04:30N 40°38' W 074°04'1 2.0
2018-Jun-23 04:00N 40°39' W 074°05'5 7.1
2018-Jun-23 03:21N 40°39' W 074°11'0 0.2
2018-Jun-23 00:31N 40°38' W 074°12'3 4.5
2018-Jun-22 23:50N 40°38' W 074°08'0 0.0
2018-Jun-22 23:26N 40°38' W 074°08'0 0.0
2018-Jun-22 22:57N 40°38' W 074°08'1 2.6
2018-Jun-22 22:30N 40°39' W 074°06'2 4.0
2018-Jun-22 22:00N 40°40' W 074°09'0 0.5
2018-Jun-22 21:23N 40°40' W 074°09'0 0.5
2018-Jun-22 21:00N 40°40' W 074°09'1 2.6
2018-Jun-22 20:28N 40°38' W 074°08'0 0.0
2018-Jun-22 19:58N 40°38' W 074°08'0 0.0
2018-Jun-22 19:28N 40°38' W 074°08'0 0.0
2018-Jun-22 18:58N 40°38' W 074°08'0 0.0
2018-Jun-22 18:28N 40°38' W 074°08'0 0.0
2018-Jun-22 17:58N 40°38' W 074°08'0 0.0
2018-Jun-22 17:28N 40°38' W 074°08'0 0.0
2018-Jun-22 16:55N 40°38' W 074°08'0 0.0
2018-Jun-22 16:28N 40°38' W 074°08'0 0.0
2018-Jun-22 15:58N 40°38' W 074°08'0 0.0
2018-Jun-22 15:30N 40°38' W 074°08'2 4.3
2018-Jun-22 15:00N 40°39' W 074°05'0 0.6
2018-Jun-22 14:30N 40°39' W 074°05'1 3.0
2018-Jun-22 14:00N 40°38' W 074°04'1 1.0
2018-Jun-22 13:30N 40°37' W 074°04'2 4.4
2018-Jun-22 13:00N 40°39' W 074°06'2 2.8
2018-Jun-22 12:28N 40°38' W 074°08'0 0.0
2018-Jun-22 11:55N 40°38' W 074°08'0 0.0
2018-Jun-22 11:28N 40°38' W 074°08'0 0.0
2018-Jun-22 11:01N 40°38' W 074°08'2 3.6
2018-Jun-22 10:29N 40°40' W 074°08'1 1.5
2018-Jun-22 09:57N 40°41' W 074°09'2 5.1
2018-Jun-22 09:30N 40°39' W 074°09'2 3.5
2018-Jun-22 09:00N 40°39' W 074°07'0 0.0
2018-Jun-22 08:31N 40°39' W 074°07'1 2.4
2018-Jun-22 08:01N 40°39' W 074°05'2 4.0
2018-Jun-22 07:30N 40°38' W 074°03'3 6.0
2018-Jun-22 07:00N 40°39' W 074°07'1 0.3
2018-Jun-22 04:53N 40°39' W 074°08'2 6.5
2018-Jun-22 04:31N 40°39' W 074°05'1 1.7
2018-Jun-22 04:00N 40°40' W 074°04'1 2.2
2018-Jun-22 03:31N 40°39' W 074°04'4 7.3
2018-Jun-22 03:00N 40°39' W 074°09'3 5.0
2018-Jun-22 02:29N 40°41' W 074°08'0 0.3
2018-Jun-22 01:36N 40°41' W 074°08'110.4
2018-Jun-22 01:30N 40°40' W 074°08'2 3.4
2018-Jun-22 00:58N 40°38' W 074°08'0 0.0
2018-Jun-21 23:49N 40°38' W 074°08'0 0.0
2018-Jun-21 23:28N 40°38' W 074°08'0 0.0
2018-Jun-21 22:55N 40°38' W 074°08'0 0.0
2018-Jun-21 22:28N 40°38' W 074°08'0 0.0
2018-Jun-21 21:58N 40°38' W 074°08'0 0.0
2018-Jun-21 21:28N 40°38' W 074°08'0 0.0
2018-Jun-21 20:55N 40°38' W 074°08'0 0.0
2018-Jun-21 18:10N 40°38' W 074°08'0 0.0
2018-Jun-21 17:55N 40°38' W 074°08'0 0.0
2018-Jun-21 17:28N 40°38' W 074°08'0 0.0
2018-Jun-21 16:58N 40°38' W 074°08'0 0.0
2018-Jun-21 16:29N 40°38' W 074°08'0 0.0
2018-Jun-21 15:59N 40°38' W 074°08'0 0.2
2018-Jun-21 15:31N 40°39' W 074°08'4 8.0
2018-Jun-21 15:00N 40°40' W 074°03'4 3.4
2018-Jun-21 13:48N 40°38' W 074°08'1 3.7
2018-Jun-21 13:30N 40°39' W 074°09'1 2.7
2018-Jun-21 13:00N 40°40' W 074°08'1 1.6
2018-Jun-21 12:30N 40°41' W 074°09'0 0.1
2018-Jun-21 12:01N 40°41' W 074°09'2 3.7
2018-Jun-21 11:30N 40°39' W 074°09'1 0.9
2018-Jun-21 10:19N 40°38' W 074°08'2 4.8
2018-Jun-21 10:00N 40°39' W 074°06'2 3.3
2018-Jun-21 09:31N 40°40' W 074°05'0 0.1
2018-Jun-21 09:00N 40°40' W 074°05'2 3.4
2018-Jun-21 08:30N 40°39' W 074°03'1 2.1
2018-Jun-21 08:01N 40°39' W 074°05'2 4.1
2018-Jun-21 07:26N 40°38' W 074°08'0 0.0
2018-Jun-21 06:38N 40°38' W 074°08'0 0.0
2018-Jun-21 06:20N 40°38' W 074°08'0 0.0
2018-Jun-21 05:26N 40°38' W 074°08'3 1.0
2018-Jun-21 02:13N 40°38' W 074°12'2 9.3
2018-Jun-21 02:00N 40°39' W 074°09'2 1.5
2018-Jun-21 00:46N 40°40' W 074°08'2 6.8
2018-Jun-21 00:28N 40°39' W 074°09'3 7.1
2018-Jun-21 00:01N 40°39' W 074°05'2 3.2
2018-Jun-20 23:30N 40°38' W 074°03'4 4.9
2018-Jun-20 22:46N 40°39' W 074°08'1 3.5
2018-Jun-20 22:31N 40°39' W 074°09'2 0.6
2018-Jun-20 18:44N 40°38' W 074°12'1 5.0
2018-Jun-20 18:28N 40°39' W 074°10'3 7.0
2018-Jun-20 18:00N 40°39' W 074°06'2 3.5
2018-Jun-20 17:31N 40°39' W 074°04'1 2.6
2018-Jun-20 17:00N 40°39' W 074°06'2 3.4
2018-Jun-20 16:30N 40°38' W 074°08'1 2.2
2018-Jun-20 16:00N 40°39' W 074°09'2 0.5
2018-Jun-20 11:49N 40°38' W 074°12'310.4
2018-Jun-20 11:30N 40°40' W 074°08'2 3.4
2018-Jun-20 11:00N 40°42' W 074°08'1 2.1
2018-Jun-20 10:29N 40°40' W 074°08'2 4.0
2018-Jun-20 10:00N 40°39' W 074°07'3 5.3
2018-Jun-20 09:30N 40°39' W 074°04'2 4.1
2018-Jun-20 09:00N 40°39' W 074°06'1 1.3
2018-Jun-20 08:10N 40°38' W 074°08'0 0.0
2018-Jun-20 07:52N 40°38' W 074°08'0 0.0
2018-Jun-20 07:18N 40°38' W 074°08'1 2.0
2018-Jun-20 07:00N 40°39' W 074°09'3 2.5
2018-Jun-20 05:52N 40°41' W 074°08'3 0.5
2018-Jun-20 00:23N 40°38' W 074°08'0 0.6
2018-Jun-19 23:58N 40°39' W 074°08'2 4.3
2018-Jun-19 23:30N 40°41' W 074°08'2 2.7
2018-Jun-19 22:55N 40°42' W 074°09'2 5.3
2018-Jun-19 22:30N 40°40' W 074°08'1 2.5
2018-Jun-19 22:00N 40°39' W 074°08'3 4.7
2018-Jun-19 21:27N 40°41' W 074°09'0 0.1
2018-Jun-19 21:00N 40°41' W 074°09'3 3.7
2018-Jun-19 20:19N 40°38' W 074°09'2 5.8
2018-Jun-19 19:55N 40°39' W 074°06'2 5.7
2018-Jun-19 19:30N 40°38' W 074°03'1 2.1
2018-Jun-19 19:00N 40°37' W 074°03'4 8.3
2018-Jun-19 18:29N 40°39' W 074°07'3 5.1
2018-Jun-19 17:52N 40°42' W 074°08'0 0.3
2018-Jun-19 17:30N 40°42' W 074°08'3 6.3
2018-Jun-19 17:00N 40°39' W 074°09'2 4.7
2018-Jun-19 16:30N 40°39' W 074°06'1 2.9
2018-Jun-19 15:59N 40°38' W 074°08'0 0.0
2018-Jun-19 15:28N 40°38' W 074°08'0 0.0
2018-Jun-19 14:52N 40°38' W 074°08'0 0.0
2018-Jun-19 14:28N 40°38' W 074°08'0 0.0
2018-Jun-19 13:58N 40°38' W 074°08'0 0.0
2018-Jun-19 13:28N 40°38' W 074°08'0 0.0
2018-Jun-19 12:58N 40°38' W 074°08'0 0.0
2018-Jun-19 12:22N 40°38' W 074°08'0 0.0
2018-Jun-19 12:00N 40°38' W 074°08'0 0.0
2018-Jun-19 11:29N 40°38' W 074°08'0 0.0
2018-Jun-19 10:49N 40°38' W 074°08'1 3.3
2018-Jun-19 10:28N 40°39' W 074°09'2 4.5
2018-Jun-19 10:00N 40°42' W 074°08'0 0.6
2018-Jun-19 09:27N 40°41' W 074°08'3 5.7
2018-Jun-19 08:59N 40°39' W 074°09'1 2.0
2018-Jun-19 08:30N 40°38' W 074°08'0 0.0
2018-Jun-19 07:57N 40°38' W 074°08'1 3.0
2018-Jun-19 07:30N 40°40' W 074°09'0 0.4
2018-Jun-19 07:00N 40°40' W 074°09'1 2.6
2018-Jun-19 06:31N 40°39' W 074°09'1 1.5
2018-Jun-19 05:58N 40°38' W 074°08'0 0.0
2018-Jun-19 05:28N 40°38' W 074°08'0 0.0
2018-Jun-19 04:55N 40°38' W 074°08'0 0.0
2018-Jun-19 04:25N 40°38' W 074°08'0 0.0
2018-Jun-19 03:58N 40°38' W 074°08'0 0.0
2018-Jun-19 00:46N 40°38' W 074°08'0 0.0
2018-Jun-19 00:28N 40°38' W 074°08'4 5.4
2018-Jun-18 23:48N 40°42' W 074°09'0 0.4
2018-Jun-18 23:24N 40°42' W 074°09'1 1.9
2018-Jun-18 22:47N 40°41' W 074°08'0 0.2
2018-Jun-18 21:14N 40°41' W 074°08'1 2.8
2018-Jun-18 21:01N 40°41' W 074°09'0 0.1
2018-Jun-18 20:30N 40°41' W 074°09'1 1.0
2018-Jun-18 19:59N 40°40' W 074°08'2 3.6
2018-Jun-18 19:28N 40°39' W 074°09'3 7.5
2018-Jun-18 19:00N 40°39' W 074°04'2 3.8
2018-Jun-18 18:29N 40°41' W 074°04'0 0.1
2018-Jun-18 18:00N 40°41' W 074°04'4 1.1
2018-Jun-18 14:33N 40°38' W 074°08'0 0.1
2018-Jun-18 14:30N 40°38' W 074°08'0 0.8
2018-Jun-18 14:00N 40°39' W 074°07'3 6.3
2018-Jun-18 13:31N 40°38' W 074°03'3 6.7
2018-Jun-18 13:00N 40°39' W 074°08'0 0.1
2018-Jun-18 12:14N 40°38' W 074°08'0 0.0
2018-Jun-18 11:59N 40°38' W 074°08'0 0.0
2018-Jun-18 11:17N 40°38' W 074°08'0 0.0
2018-Jun-18 10:59N 40°38' W 074°08'0 0.0
2018-Jun-18 10:14N 40°38' W 074°08'0 0.0
2018-Jun-18 09:56N 40°38' W 074°08'0 0.0
2018-Jun-18 09:17N 40°38' W 074°08'0 0.0
2018-Jun-18 08:59N 40°38' W 074°08'1 2.8
2018-Jun-18 08:30N 40°39' W 074°10'4 8.1
2018-Jun-18 08:00N 40°35' W 074°12'2 4.9
2018-Jun-18 07:30N 40°33' W 074°14'5 2.8
2018-Jun-18 05:45N 40°38' W 074°12'2 7.1
2018-Jun-18 05:30N 40°39' W 074°10'2 3.5
2018-Jun-18 04:59N 40°38' W 074°08'0 0.6
2018-Jun-18 04:30N 40°39' W 074°08'2 5.1
2018-Jun-18 04:01N 40°39' W 074°05'1 1.8
2018-Jun-18 03:31N 40°38' W 074°04'3 5.6
2018-Jun-18 03:00N 40°38' W 074°08'0 0.0
2018-Jun-18 02:28N 40°38' W 074°08'0 0.0
2018-Jun-18 01:55N 40°38' W 074°08'0 0.0
2018-Jun-18 01:22N 40°38' W 074°08'0 0.0
2018-Jun-18 01:00N 40°38' W 074°08'0 0.0
2018-Jun-18 00:27N 40°38' W 074°08'0 0.0
2018-Jun-18 00:00N 40°38' W 074°08'0 0.0
2018-Jun-17 23:30N 40°38' W 074°08'0 0.0
2018-Jun-17 22:57N 40°38' W 074°08'0 0.0
2018-Jun-17 22:30N 40°38' W 074°08'2 3.0
2018-Jun-17 21:58N 40°39' W 074°10'1 0.5
2018-Jun-17 19:09N 40°39' W 074°08'2 6.3
2018-Jun-17 18:54N 40°39' W 074°06'2 2.8
2018-Jun-17 18:18N 40°38' W 074°04'1 2.6
2018-Jun-17 17:59N 40°39' W 074°04'3 0.4
2018-Jun-17 10:46N 40°38' W 074°08'0 0.0
2018-Jun-17 10:23N 40°38' W 074°08'1 3.8
2018-Jun-17 10:00N 40°40' W 074°09'1 2.3
2018-Jun-17 09:29N 40°39' W 074°09'1 0.2
2018-Jun-17 04:10N 40°38' W 074°08'2 9.9
2018-Jun-17 04:00N 40°39' W 074°10'2 0.5
2018-Jun-17 01:04N 40°38' W 074°12'0 6.5
2018-Jun-17 01:00N 40°38' W 074°12'3 5.6
2018-Jun-17 00:30N 40°39' W 074°08'3 6.6
2018-Jun-16 23:59N 40°38' W 074°03'1 1.3
2018-Jun-16 23:30N 40°38' W 074°04'1 2.0
2018-Jun-16 23:00N 40°39' W 074°05'3 5.1
2018-Jun-16 22:29N 40°39' W 074°09'2 4.9
2018-Jun-16 22:00N 40°42' W 074°08'0 0.1
2018-Jun-16 21:29N 40°42' W 074°08'3 0.5
2018-Jun-16 14:34N 40°38' W 074°08'0 4.0
2018-Jun-16 14:31N 40°39' W 074°08'3 5.6
2018-Jun-16 14:00N 40°39' W 074°04'2 4.4
2018-Jun-16 13:30N 40°37' W 074°03'2 3.9
2018-Jun-16 12:59N 40°39' W 074°02'0 0.0
2018-Jun-16 12:29N 40°39' W 074°02'0 0.0
2018-Jun-16 11:59N 40°39' W 074°02'0 0.0
2018-Jun-16 11:29N 40°39' W 074°02'0 0.5
2018-Jun-16 11:00N 40°39' W 074°02'2 4.7
2018-Jun-16 10:30N 40°40' W 074°05'0 0.7
2018-Jun-16 10:00N 40°40' W 074°05'0 0.0
2018-Jun-16 09:30N 40°40' W 074°05'0 0.0
2018-Jun-16 08:57N 40°40' W 074°05'0 0.6
2018-Jun-16 08:30N 40°40' W 074°05'4 7.0
2018-Jun-16 08:00N 40°39' W 074°09'1 2.7
2018-Jun-16 07:30N 40°40' W 074°09'0 0.2
2018-Jun-16 07:00N 40°40' W 074°09'0 0.0
2018-Jun-16 06:30N 40°40' W 074°09'0 0.0
2018-Jun-16 06:00N 40°40' W 074°09'0 0.0
2018-Jun-16 05:25N 40°40' W 074°09'0 0.0
2018-Jun-16 05:00N 40°40' W 074°09'2 1.0
2018-Jun-16 03:24N 40°38' W 074°08'0 0.0
2018-Jun-16 01:42N 40°38' W 074°08'0 0.0
2018-Jun-15 21:44N 40°38' W 074°08'1 3.4
2018-Jun-15 21:31N 40°39' W 074°09'3 5.1
2018-Jun-15 20:55N 40°42' W 074°08'1 1.6
2018-Jun-15 20:29N 40°41' W 074°08'3 5.4
2018-Jun-15 20:00N 40°38' W 074°09'1 0.7
2018-Jun-15 19:04N 40°38' W 074°08'0 0.2
2018-Jun-15 18:55N 40°39' W 074°08'0 0.1
2018-Jun-15 18:28N 40°38' W 074°08'0 0.0
2018-Jun-15 17:49N 40°38' W 074°08'0 0.0
2018-Jun-15 17:28N 40°38' W 074°08'0 0.0
2018-Jun-15 17:00N 40°38' W 074°08'1 2.6
2018-Jun-15 16:28N 40°40' W 074°09'1 1.8
2018-Jun-15 15:58N 40°39' W 074°09'3 6.0
2018-Jun-15 15:30N 40°39' W 074°05'1 2.0
2018-Jun-15 15:00N 40°38' W 074°04'0 0.0
2018-Jun-15 14:30N 40°38' W 074°04'1 2.1
2018-Jun-15 14:00N 40°39' W 074°05'0 0.9
2018-Jun-15 13:30N 40°39' W 074°05'1 1.8
2018-Jun-15 13:00N 40°39' W 074°06'0 0.0
2018-Jun-15 12:30N 40°39' W 074°06'2 1.2
2018-Jun-15 11:12N 40°38' W 074°08'1 7.3
2018-Jun-15 11:00N 40°39' W 074°06'2 3.4
2018-Jun-15 10:30N 40°40' W 074°05'0 0.1
2018-Jun-15 09:59N 40°40' W 074°05'2 4.8
2018-Jun-15 09:31N 40°38' W 074°03'1 1.3
2018-Jun-15 09:01N 40°37' W 074°03'4 7.2
2018-Jun-15 08:30N 40°38' W 074°08'0 0.2
2018-Jun-15 08:00N 40°39' W 074°08'2 4.0
2018-Jun-15 07:30N 40°41' W 074°08'1 2.7
2018-Jun-15 07:00N 40°42' W 074°09'0 0.3
2018-Jun-15 06:05N 40°42' W 074°08'1 9.8
2018-Jun-15 06:00N 40°41' W 074°08'2 4.2
2018-Jun-15 05:25N 40°38' W 074°08'0 0.0
2018-Jun-15 04:58N 40°38' W 074°08'0 0.0
2018-Jun-15 04:28N 40°38' W 074°08'0 0.0
2018-Jun-15 03:55N 40°38' W 074°08'0 0.0
2018-Jun-15 03:19N 40°38' W 074°08'0 0.0
2018-Jun-15 02:58N 40°38' W 074°08'0 0.0
2018-Jun-15 02:28N 40°38' W 074°08'0 0.0
2018-Jun-15 01:58N 40°38' W 074°08'0 0.0
2018-Jun-15 01:28N 40°38' W 074°08'0 0.0
2018-Jun-15 00:55N 40°38' W 074°08'0 0.0
2018-Jun-15 00:28N 40°38' W 074°08'0 0.0
2018-Jun-14 23:55N 40°38' W 074°08'0 0.0
2018-Jun-14 23:25N 40°38' W 074°08'1 2.4
2018-Jun-14 23:00N 40°39' W 074°09'  

Dump ship's entire track history